Time,TemperatureF,DewpointF,PressureIn,WindDirection,WindDirectionDegrees,WindSpeedMPH,WindSpeedGustMPH,Humidity,HourlyPrecipIn,Conditions,Clouds,dailyrainin,SoftwareType,DateUTC
2013-11-18 04:59:00,72.0,70.4,29.96,North,0,0.0,0.0,95,0.00,,,0.00,WUHU21623XXSP,2013-11-18 10:59:00,
2013-11-18 05:04:00,72.0,70.4,29.96,North,0,0.0,0.0,95,0.00,,,0.00,WUHU21623XXSP,2013-11-18 11:04:00,
2013-11-18 05:11:00,72.0,70.4,29.96,North,0,0.0,0.0,95,0.00,,,0.00,WUHU21623XXSP,2013-11-18 11:11:00,
2013-11-18 05:16:00,72.0,70.4,29.96,North,0,0.0,0.0,95,0.00,,,0.00,WUHU21623XXSP,2013-11-18 11:16:00,
2013-11-18 05:21:00,72.0,70.4,29.96,North,0,0.0,0.0,95,0.00,,,0.00,WUHU21623XXSP,2013-11-18 11:21:00,
2013-11-18 05:26:00,72.0,70.4,29.96,North,0,0.0,0.0,95,0.00,,,0.00,WUHU21623XXSP,2013-11-18 11:26:00,
2013-11-18 05:31:00,72.0,70.4,29.96,North,0,0.0,0.0,95,0.00,,,0.00,WUHU21623XXSP,2013-11-18 11:31:00,
2013-11-18 05:36:00,72.0,70.4,29.96,North,0,0.0,0.0,95,0.00,,,0.00,WUHU21623XXSP,2013-11-18 11:36:00,
2013-11-18 05:41:00,72.0,70.4,29.96,North,0,0.0,0.0,95,0.00,,,0.00,WUHU21623XXSP,2013-11-18 11:41:00,
2013-11-18 05:46:00,72.0,70.4,29.96,North,0,0.0,0.0,95,0.00,,,0.00,WUHU21623XXSP,2013-11-18 11:46:00,
2013-11-18 05:51:00,72.0,70.4,29.96,North,0,0.0,0.0,95,0.00,,,0.00,WUHU21623XXSP,2013-11-18 11:51:00,
2013-11-18 05:56:00,72.0,70.4,29.96,North,0,0.0,0.0,95,0.00,,,0.00,WUHU21623XXSP,2013-11-18 11:56:00,
2013-11-18 06:01:00,72.0,70.4,29.96,North,0,0.0,0.0,95,0.00,,,0.00,WUHU21623XXSP,2013-11-18 12:01:00,
2013-11-18 06:06:00,72.0,70.4,29.96,North,0,0.0,0.0,95,0.00,,,0.00,WUHU21623XXSP,2013-11-18 12:06:00,
2013-11-18 06:11:00,72.0,70.4,29.96,North,0,0.0,0.0,95,0.00,,,0.00,WUHU21623XXSP,2013-11-18 12:11:00,
2013-11-18 06:16:00,72.0,70.4,29.96,North,0,0.0,0.0,95,0.00,,,0.00,WUHU21623XXSP,2013-11-18 12:16:00,
2013-11-18 06:24:00,71.8,70.3,29.98,North,0,0.0,0.0,95,0.00,,,0.00,WUHU21623XXSP,2013-11-18 12:24:00,
2013-11-18 06:29:00,71.6,70.1,29.98,North,0,0.0,0.0,95,0.00,,,0.00,WUHU21623XXSP,2013-11-18 12:29:00,
2013-11-18 06:34:00,71.4,69.9,29.98,North,0,0.0,0.0,95,0.00,,,0.00,WUHU21623XXSP,2013-11-18 12:34:00,
2013-11-18 06:39:00,71.4,69.9,29.98,North,0,0.0,0.0,95,0.00,,,0.00,WUHU21623XXSP,2013-11-18 12:39:00,
2013-11-18 06:44:00,71.4,69.9,29.98,North,0,0.0,0.0,95,0.00,,,0.00,WUHU21623XXSP,2013-11-18 12:44:00,
2013-11-18 06:49:00,71.4,69.9,29.98,North,0,0.0,0.0,95,0.00,,,0.00,WUHU21623XXSP,2013-11-18 12:49:00,
2013-11-18 07:28:00,70.7,69.2,29.99,North,0,0.0,0.0,95,0.00,,,0.00,WUHU21623XXSP,2013-11-18 13:28:00,
2013-11-18 07:33:00,70.7,69.2,29.99,North,0,0.0,0.0,95,0.00,,,0.00,WUHU21623XXSP,2013-11-18 13:33:00,
2013-11-18 07:38:00,70.7,69.2,29.99,North,0,0.0,0.0,95,0.00,,,0.00,WUHU21623XXSP,2013-11-18 13:38:00,
2013-11-18 07:43:00,70.7,69.5,29.99,North,0,0.0,0.0,96,0.02,,,0.02,WUHU21623XXSP,2013-11-18 13:43:00,
2013-11-18 07:48:00,70.7,69.5,29.99,North,0,0.0,0.0,96,0.02,,,0.02,WUHU21623XXSP,2013-11-18 13:48:00,
2013-11-18 07:53:00,70.7,69.5,29.99,North,0,0.0,0.0,96,0.02,,,0.02,WUHU21623XXSP,2013-11-18 13:53:00,
2013-11-18 07:58:00,70.7,69.5,29.99,North,0,0.0,0.0,96,0.02,,,0.02,WUHU21623XXSP,2013-11-18 13:58:00,
2013-11-18 08:03:00,70.9,69.7,30.00,North,0,0.0,0.0,96,0.02,,,0.02,WUHU21623XXSP,2013-11-18 14:03:00,
2013-11-18 08:08:00,70.7,69.2,30.01,North,0,0.0,0.0,95,0.02,,,0.02,WUHU21623XXSP,2013-11-18 14:08:00,
2013-11-18 08:13:00,70.0,68.1,30.02,North,0,0.0,0.0,94,0.04,,,0.04,WUHU21623XXSP,2013-11-18 14:13:00,
2013-11-18 08:18:00,69.4,67.3,30.02,North,0,0.0,0.0,93,0.04,,,0.04,WUHU21623XXSP,2013-11-18 14:18:00,
2013-11-18 08:23:00,68.7,66.9,30.02,North,0,0.0,0.0,92,0.04,,,0.04,WUHU21623XXSP,2013-11-18 14:23:00,
2013-11-18 08:28:00,67.8,65.4,30.03,North,0,0.0,0.0,92,0.04,,,0.04,WUHU21623XXSP,2013-11-18 14:28:00,
2013-11-18 08:33:00,67.5,65.2,30.03,North,0,0.0,0.0,92,0.04,,,0.04,WUHU21623XXSP,2013-11-18 14:33:00,
2013-11-18 08:38:00,67.1,64.7,30.03,North,0,0.0,0.0,92,0.04,,,0.04,WUHU21623XXSP,2013-11-18 14:38:00,
2013-11-18 08:43:00,66.7,64.3,30.03,North,0,0.0,0.0,92,0.02,,,0.04,WUHU21623XXSP,2013-11-18 14:43:00,
2013-11-18 08:48:00,66.7,64.3,30.04,North,0,0.0,0.0,92,0.02,,,0.04,WUHU21623XXSP,2013-11-18 14:48:00,
2013-11-18 08:53:00,66.7,64.3,30.04,North,0,0.0,0.0,92,0.02,,,0.04,WUHU21623XXSP,2013-11-18 14:53:00,
2013-11-18 08:58:00,66.7,64.3,30.04,North,0,0.0,0.0,92,0.02,,,0.04,WUHU21623XXSP,2013-11-18 14:58:00,
2013-11-18 09:03:00,66.7,64.3,30.04,North,0,0.0,0.0,92,0.02,,,0.04,WUHU21623XXSP,2013-11-18 15:03:00,
2013-11-18 09:08:00,66.7,64.3,30.04,North,0,0.0,0.0,92,0.02,,,0.04,WUHU21623XXSP,2013-11-18 15:08:00,
2013-11-18 09:54:00,63.1,60.3,30.06,North,0,0.0,0.0,90,0.00,,,0.04,WUHU21623XXSP,2013-11-18 15:54:00,
2013-11-18 09:59:00,62.8,59.9,30.06,North,0,0.0,0.0,90,0.00,,,0.04,WUHU21623XXSP,2013-11-18 15:59:00,
2013-11-18 10:04:00,62.4,59.5,30.06,North,0,0.0,0.0,90,0.00,,,0.04,WUHU21623XXSP,2013-11-18 16:04:00,
2013-11-18 10:09:00,62.2,59.6,30.06,North,0,0.0,0.0,91,0.04,,,0.08,WUHU21623XXSP,2013-11-18 16:09:00,
2013-11-18 10:14:00,62.1,59.5,30.06,North,0,0.0,0.0,91,0.04,,,0.08,WUHU21623XXSP,2013-11-18 16:14:00,
2013-11-18 10:19:00,62.1,59.5,30.06,North,0,0.0,0.0,91,0.06,,,0.10,WUHU21623XXSP,2013-11-18 16:19:00,
2013-11-18 10:24:00,62.1,59.5,30.05,North,0,0.0,0.0,91,0.06,,,0.10,WUHU21623XXSP,2013-11-18 16:24:00,
2013-11-18 10:29:00,62.1,59.8,30.06,North,0,0.0,0.0,92,0.08,,,0.12,WUHU21623XXSP,2013-11-18 16:29:00,
2013-11-18 10:34:00,62.2,59.9,30.06,North,0,0.0,0.0,92,0.08,,,0.12,WUHU21623XXSP,2013-11-18 16:34:00,
2013-11-18 10:39:00,62.4,60.4,30.06,North,0,0.0,0.0,93,0.08,,,0.12,WUHU21623XXSP,2013-11-18 16:39:00,
2013-11-18 10:44:00,62.4,60.4,30.06,North,0,0.0,0.0,93,0.08,,,0.12,WUHU21623XXSP,2013-11-18 16:44:00,
2013-11-18 10:49:00,62.8,60.8,30.06,North,0,0.0,0.0,93,0.08,,,0.12,WUHU21623XXSP,2013-11-18 16:49:00,
2013-11-18 10:54:00,63.1,61.1,30.05,North,0,0.0,0.0,93,0.08,,,0.12,WUHU21623XXSP,2013-11-18 16:54:00,
2013-11-18 10:59:00,63.1,61.1,30.06,North,0,0.0,0.0,93,0.08,,,0.12,WUHU21623XXSP,2013-11-18 16:59:00,
2013-11-18 11:04:00,63.3,61.3,30.05,North,0,0.0,0.0,93,0.08,,,0.12,WUHU21623XXSP,2013-11-18 17:04:00,
2013-11-18 11:09:00,63.7,61.5,30.05,North,0,0.0,0.0,93,0.04,,,0.12,WUHU21623XXSP,2013-11-18 17:09:00,
2013-11-18 11:14:00,63.7,61.7,30.05,North,0,0.0,0.0,93,0.04,,,0.12,WUHU21623XXSP,2013-11-18 17:14:00,
2013-11-18 11:19:00,64.0,61.7,30.05,North,0,0.0,0.0,93,0.02,,,0.12,WUHU21623XXSP,2013-11-18 17:19:00,
2013-11-18 11:24:00,64.2,62.0,30.04,North,0,0.0,0.0,93,0.00,,,0.12,WUHU21623XXSP,2013-11-18 17:24:00,
2013-11-18 11:29:00,64.2,62.2,30.04,North,0,0.0,0.0,93,0.00,,,0.12,WUHU21623XXSP,2013-11-18 17:29:00,
2013-11-18 11:34:00,64.4,62.2,30.04,North,0,0.0,0.0,93,0.00,,,0.12,WUHU21623XXSP,2013-11-18 17:34:00,
2013-11-18 11:39:00,64.6,62.5,30.04,North,0,0.0,0.0,93,0.00,,,0.12,WUHU21623XXSP,2013-11-18 17:39:00,
2013-11-18 11:44:00,64.6,62.5,30.04,North,0,0.0,0.0,93,0.00,,,0.12,WUHU21623XXSP,2013-11-18 17:44:00,
2013-11-18 11:49:00,64.8,62.4,30.03,North,0,0.0,0.0,92,0.00,,,0.12,WUHU21623XXSP,2013-11-18 17:49:00,
2013-11-18 11:54:00,64.9,62.9,30.03,North,0,0.0,0.0,93,0.00,,,0.12,WUHU21623XXSP,2013-11-18 17:54:00,
2013-11-18 11:59:00,64.9,62.9,30.03,North,0,0.0,0.0,93,0.00,,,0.12,WUHU21623XXSP,2013-11-18 17:59:00,
2013-11-18 12:04:00,64.9,62.9,30.03,North,0,0.0,0.0,93,0.00,,,0.12,WUHU21623XXSP,2013-11-18 18:04:00,
2013-11-18 12:09:00,65.1,62.7,30.03,North,0,0.0,0.0,92,0.00,,,0.12,WUHU21623XXSP,2013-11-18 18:09:00,
2013-11-18 12:14:00,65.1,62.7,30.03,North,0,0.0,0.0,92,0.00,,,0.12,WUHU21623XXSP,2013-11-18 18:14:00,
2013-11-18 12:19:00,65.3,62.9,30.03,North,0,0.0,0.0,92,0.00,,,0.12,WUHU21623XXSP,2013-11-18 18:19:00,
2013-11-18 12:24:00,65.3,62.9,30.03,North,0,0.0,0.0,92,0.00,,,0.12,WUHU21623XXSP,2013-11-18 18:24:00,
2013-11-18 12:29:00,65.3,62.9,30.03,North,0,0.0,0.0,92,0.00,,,0.12,WUHU21623XXSP,2013-11-18 18:29:00,
2013-11-18 12:34:00,65.3,62.9,30.02,North,0,0.0,0.0,92,0.00,,,0.12,WUHU21623XXSP,2013-11-18 18:34:00,
2013-11-18 12:39:00,65.3,62.9,30.02,North,0,0.0,0.0,92,0.00,,,0.12,WUHU21623XXSP,2013-11-18 18:39:00,
2013-11-18 12:44:00,65.3,62.9,30.02,North,0,0.0,0.0,92,0.00,,,0.12,WUHU21623XXSP,2013-11-18 18:44:00,
2013-11-18 20:00:00,63.1,48.7,30.06,North,0,0.0,0.0,59,0.00,,,0.12,WUHU21623XXSP,2013-11-19 02:00:00,
2013-11-18 20:05:00,62.8,48.4,30.07,North,0,0.0,0.0,59,0.00,,,0.12,WUHU21623XXSP,2013-11-19 02:05:00,
2013-11-18 20:10:00,62.6,48.2,30.07,North,0,0.0,0.0,59,0.00,,,0.12,WUHU21623XXSP,2013-11-19 02:10:00,
2013-11-18 20:15:00,62.4,47.4,30.07,North,0,0.0,0.0,58,0.00,,,0.12,WUHU21623XXSP,2013-11-19 02:15:00,
2013-11-18 20:20:00,62.4,47.4,30.07,North,0,0.0,0.0,58,0.00,,,0.12,WUHU21623XXSP,2013-11-19 02:20:00,
2013-11-18 20:25:00,62.2,47.3,30.07,North,0,0.0,0.0,58,0.00,,,0.12,WUHU21623XXSP,2013-11-19 02:25:00,
2013-11-18 20:30:00,62.2,47.3,30.08,North,0,0.0,0.0,58,0.00,,,0.12,WUHU21623XXSP,2013-11-19 02:30:00,
2013-11-18 20:35:00,62.2,47.3,30.08,North,0,0.0,0.0,58,0.00,,,0.12,WUHU21623XXSP,2013-11-19 02:35:00,
2013-11-18 20:40:00,61.9,46.9,30.08,North,0,0.0,0.0,58,0.00,,,0.12,WUHU21623XXSP,2013-11-19 02:40:00,
2013-11-18 20:45:00,61.7,46.3,30.08,North,0,0.0,0.0,57,0.00,,,0.12,WUHU21623XXSP,2013-11-19 02:45:00,
2013-11-18 20:50:00,61.5,46.1,30.08,North,0,0.0,0.0,57,0.00,,,0.12,WUHU21623XXSP,2013-11-19 02:50:00,
2013-11-18 20:55:00,61.5,45.6,30.08,North,0,0.0,0.0,56,0.00,,,0.12,WUHU21623XXSP,2013-11-19 02:55:00,
2013-11-18 21:00:00,61.3,45.5,30.08,North,0,0.0,0.0,57,0.00,,,0.12,WUHU21623XXSP,2013-11-19 03:00:00,
2013-11-18 21:05:00,61.2,46.0,30.08,North,0,0.0,0.0,57,0.00,,,0.12,WUHU21623XXSP,2013-11-19 03:05:00,
2013-11-18 21:10:00,61.2,45.8,30.08,North,0,0.0,0.0,57,0.00,,,0.12,WUHU21623XXSP,2013-11-19 03:10:00,
2013-11-18 21:15:00,61.2,45.8,30.08,North,0,0.0,0.0,57,0.00,,,0.12,WUHU21623XXSP,2013-11-19 03:15:00,
2013-11-18 21:20:00,61.2,45.8,30.08,North,0,0.0,0.0,57,0.00,,,0.12,WUHU21623XXSP,2013-11-19 03:20:00,
2013-11-18 21:25:00,61.2,45.8,30.08,North,0,0.0,0.0,57,0.00,,,0.12,WUHU21623XXSP,2013-11-19 03:25:00,
2013-11-18 21:30:00,60.4,45.1,30.08,North,0,0.0,0.0,57,0.00,,,0.12,WUHU21623XXSP,2013-11-19 03:30:00,
2013-11-18 21:35:00,60.4,45.1,30.08,North,0,0.0,0.0,57,0.00,,,0.12,WUHU21623XXSP,2013-11-19 03:35:00,
2013-11-18 21:40:00,60.1,44.3,30.08,North,0,0.0,0.0,56,0.00,,,0.12,WUHU21623XXSP,2013-11-19 03:40:00,
2013-11-18 21:45:00,60.1,44.3,30.08,North,0,0.0,0.0,56,0.00,,,0.12,WUHU21623XXSP,2013-11-19 03:45:00,
2013-11-18 21:50:00,59.9,44.1,30.08,North,0,0.0,0.0,56,0.00,,,0.12,WUHU21623XXSP,2013-11-19 03:50:00,
2013-11-18 21:55:00,59.7,44.0,30.08,North,0,0.0,0.0,56,0.00,,,0.12,WUHU21623XXSP,2013-11-19 03:55:00,
2013-11-18 22:00:00,59.7,43.5,30.08,North,0,0.0,0.0,55,0.00,,,0.12,WUHU21623XXSP,2013-11-19 04:00:00,
2013-11-18 22:05:00,59.7,43.5,30.08,North,0,0.0,0.0,55,0.00,,,0.12,WUHU21623XXSP,2013-11-19 04:05:00,
2013-11-18 22:07:00,59.7,43.5,30.08,North,0,0.0,0.0,56,0.00,,,0.12,WUHU21623XXSP,2013-11-19 04:07:00,
2013-11-18 22:12:00,59.5,43.8,30.08,North,0,0.0,0.0,56,0.00,,,0.12,WUHU21623XXSP,2013-11-19 04:12:00,
2013-11-18 22:17:00,59.5,43.8,30.08,North,0,0.0,0.0,56,0.00,,,0.12,WUHU21623XXSP,2013-11-19 04:17:00,
2013-11-18 22:22:00,59.4,43.6,30.08,North,0,0.0,0.0,56,0.00,,,0.12,WUHU21623XXSP,2013-11-19 04:22:00,
2013-11-18 22:27:00,59.2,43.4,30.08,North,0,0.0,0.0,56,0.00,,,0.12,WUHU21623XXSP,2013-11-19 04:27:00,
2013-11-18 22:32:00,59.2,43.9,30.08,North,0,0.0,0.0,57,0.00,,,0.12,WUHU21623XXSP,2013-11-19 04:32:00,
2013-11-18 22:37:00,58.8,43.6,30.09,North,0,0.0,0.0,57,0.00,,,0.12,WUHU21623XXSP,2013-11-19 04:37:00,
2013-11-18 22:42:00,58.8,43.6,30.09,North,0,0.0,0.0,57,0.00,,,0.12,WUHU21623XXSP,2013-11-19 04:42:00,
2013-11-18 22:47:00,58.6,43.4,30.09,North,0,0.0,0.0,57,0.00,,,0.12,WUHU21623XXSP,2013-11-19 04:47:00,
2013-11-18 22:52:00,58.6,43.4,30.08,North,0,0.0,0.0,57,0.00,,,0.12,WUHU21623XXSP,2013-11-19 04:52:00,
2013-11-18 22:57:00,58.6,43.4,30.08,North,0,0.0,0.0,57,0.00,,,0.12,WUHU21623XXSP,2013-11-19 04:57:00,
2013-11-18 23:01:00,58.3,43.1,30.08,North,0,0.0,0.0,57,0.00,,,0.12,WUHU21623XXSP,2013-11-19 05:01:00,
2013-11-18 23:06:00,58.1,43.1,30.08,North,0,0.0,0.0,57,0.00,,,0.12,WUHU21623XXSP,2013-11-19 05:06:00,
2013-11-18 23:11:00,57.9,42.8,30.08,North,0,0.0,0.0,57,0.00,,,0.12,WUHU21623XXSP,2013-11-19 05:11:00,
2013-11-18 23:16:00,57.7,43.2,30.08,North,0,0.0,0.0,58,0.00,,,0.12,WUHU21623XXSP,2013-11-19 05:16:00,
2013-11-18 23:21:00,57.6,42.9,30.08,North,0,0.0,0.0,58,0.00,,,0.12,WUHU21623XXSP,2013-11-19 05:21:00,
2013-11-18 23:26:00,57.4,42.7,30.08,North,0,0.0,0.0,59,0.00,,,0.12,WUHU21623XXSP,2013-11-19 05:26:00,
2013-11-18 23:31:00,57.4,43.2,30.08,North,0,0.0,0.0,59,0.00,,,0.12,WUHU21623XXSP,2013-11-19 05:31:00,
2013-11-18 23:36:00,57.0,42.9,30.08,North,0,0.0,0.0,59,0.00,,,0.12,WUHU21623XXSP,2013-11-19 05:36:00,
2013-11-18 23:41:00,57.0,42.9,30.08,North,0,0.0,0.0,59,0.00,,,0.12,WUHU21623XXSP,2013-11-19 05:41:00,
2013-11-18 23:46:00,56.8,42.7,30.08,North,0,0.0,0.0,59,0.00,,,0.12,WUHU21623XXSP,2013-11-19 05:46:00,
2013-11-18 23:51:00,56.8,42.7,30.08,North,0,0.0,0.0,60,0.00,,,0.12,WUHU21623XXSP,2013-11-19 05:51:00,
2013-11-18 23:56:00,56.7,43.0,30.08,North,0,0.0,0.0,60,0.00,,,0.12,WUHU21623XXSP,2013-11-19 05:56:00,